Details From KLAX - Los Angeles Intl
To KSMO - SANTA MONICA MUNI
Flight Number 4
Tags flyingdevstudio
Created
Modified
Stats Distance 11 nm / 20 km
Max Altitude 0 ft / 0 m
Waypoints 5
Social Downloads 14
Likes 1
Share VATSIM

Download

Looking for another format? Having issues loading an existing format? Contact us
Advertisement - Login to hide

Notes

Requested: KLAX R0953 ENNEY WAADR KSMO

Route

KLAX R0953 ENNEY WAADR KSMO

ID Type Via Altitude Latitude Longitude Leg Dist Tot Dist Heading (true) Name
O KLAX APT - 0 ft / 0 m 33.94313˚ -118.40892˚ - 0 nm - Los Angeles Intl
R0953 FIX - 0 ft / 0 m 33.95019˚ -118.40166˚ 0 nm 0 nm 40° / 40° -
ENNEY FIX - 0 ft / 0 m 33.94278˚ -118.50139˚ 4 nm 5 nm 265° / 265° -
WAADR FIX - 0 ft / 0 m 33.99581˚ -118.47497˚ 3 nm 8 nm 22° / 22° -
O KSMO APT - 0 ft / 0 m 34.01585˚ -118.45133˚ 1 nm 10 nm 44° / 44° SANTA MONICA MUNI

Altitude Profile

Advertisement - Login to hide

KLAX

Details ICAO KLAX (LAX)
Name Los Angeles Intl
Region United States
Timezone America/Los_Angeles (UTC-8.0)
Stats Elevation 126 ft / 38 m (AMSL)
Location 33.943130° -118.408917°
Runways 4
Magnetic Variation 12.006° E

METAR

KLAX 161653Z 07008KT 7SM FEW100 SCT250 16/08 A2973 RMK AO2 SLP064 T01560083

Decode

TAF

TAF AMD KLAX 161459Z 1615/1718 09008KT P6SM SCT015 SCT150 FM162000 26010KT P6SM SKC FM170300 VRB03KT P6SM SKC FM170900 03007KT P6SM SKC WS010/03035KT FM171700 VRB03KT P6SM SKC

Decode

Departure Runways

ID Width Length Bearing (true) Bearing (mag) Surface Threshold Offset Overrun Length
06L 151 ft / 46 m 8,907 ft / 2,715 m 82.98° 70.97° Concrete 0 ft / 0 m 0 ft / 0 m
06R 151 ft / 46 m 10,266 ft / 3,129 m 82.95° 70.94° Concrete 331 ft / 101 m 0 ft / 0 m
07L 151 ft / 46 m 12,069 ft / 3,679 m 82.96° 70.95° Concrete 0 ft / 0 m 0 ft / 0 m
07R 200 ft / 61 m 11,081 ft / 3,377 m 82.96° 70.95° Concrete 0 ft / 0 m 397 ft / 121 m
24L 151 ft / 46 m 10,266 ft / 3,129 m 262.97° 250.96° Concrete 0 ft / 0 m 174 ft / 53 m
24R 151 ft / 46 m 8,907 ft / 2,715 m 263.00° 250.99° Concrete 0 ft / 0 m 305 ft / 93 m
25L 200 ft / 61 m 11,081 ft / 3,377 m 262.98° 250.97° Concrete 0 ft / 0 m 1,053 ft / 321 m
25R 151 ft / 46 m 12,069 ft / 3,679 m 262.98° 250.97° Concrete 958 ft / 292 m 154 ft / 47 m

KSMO

Details ICAO KSMO (SMO)
Name SANTA MONICA MUNI
Region United States
Timezone America/Los_Angeles (UTC-8.0)
Stats Elevation 177 ft / 54 m (AMSL)
Location 34.015847° -118.451329°
Runways 1
Magnetic Variation 12.029° E

METAR

KSMO 161651Z AUTO 05005KT 8SM CLR 16/07 A2973 RMK AO2 SLP066 T01560067

Decode

TAF

TAF AMD KSMO 161407Z 1614/1712 04006KT P6SM SCT025 FM161900 24008KT P6SM SKC FM170400 36009KT P6SM SKC

Decode

Destination Runways

ID Width Length Bearing (true) Bearing (mag) Surface Threshold Offset Overrun Length
03 151 ft / 46 m 4,978 ft / 1,517 m 44.45° 32.42° Asphalt 0 ft / 0 m 0 ft / 0 m
21 151 ft / 46 m 4,978 ft / 1,517 m 224.46° 212.43° Asphalt 0 ft / 0 m 0 ft / 0 m

Popular Alternatives